Time;durP1;ratioP1;P1;durP2;ratioP2;P2;SDS_P1;SDS_P2;PMS_P1;PMS_P2;Temp;Humidity;BMP_temperature;BMP_pressure;BME280_temperature;BME280_humidity;BME280_pressure;Samples;Min_cycle;Max_cycle;Signal;HPM_P1;HPM_P2
2023/05/30 15:09:54;;;;;;;;;6.00;6.00;;;;;;;;5102264;27;13417;-77
2023/05/30 15:12:20;;;;;;;;;5.00;5.00;;;;;;;;5086588;28;8824;-75
2023/05/30 15:14:45;;;;;;;;;5.00;5.00;;;;;;;;5086479;28;8837;-75
2023/05/30 15:17:11;;;;;;;;;9.00;6.33;;;;;;;;5086448;28;8799;-72
2023/05/30 15:19:36;;;;;;;;;7.33;6.00;;;;;;;;5084889;28;8977;-74
2023/05/30 15:22:03;;;;;;;;;4.00;4.00;;;;;;;;5094946;28;8904;-74
2023/05/30 15:24:28;;;;;;;;;5.00;5.00;;;;;;;;5106434;28;8826;-75
2023/05/30 15:26:54;;;;;;;;;5.00;3.00;;;;;;;;5087450;28;9012;-80
2023/05/30 15:29:20;;;;;;;;;5.67;5.67;;;;;;;;5092657;28;8846;-79
2023/05/30 15:31:45;;;;;;;;;5.67;5.67;;;;;;;;5094832;28;8800;-77
2023/05/30 15:34:10;;;;;;;;;7.00;6.67;;;;;;;;5106701;28;8863;-78
2023/05/30 15:36:36;;;;;;;;;7.33;5.00;;;;;;;;5106713;28;8796;-76
2023/05/30 15:39:01;;;;;;;;;5.67;5.67;;;;;;;;5107420;28;8799;-78
2023/05/30 15:41:26;;;;;;;;;8.33;6.00;;;;;;;;5106167;28;8783;-74
2023/05/30 15:43:52;;;;;;;;;7.00;6.00;;;;;;;;5093577;28;8830;-78
2023/05/30 15:46:17;;;;;;;;;6.67;6.67;;;;;;;;5086478;28;8824;-74
2023/05/30 15:48:43;;;;;;;;;6.00;5.67;;;;;;;;5086097;28;8842;-78
2023/05/30 15:51:08;;;;;;;;;8.00;7.00;;;;;;;;5086042;28;8774;-81
2023/05/30 15:53:33;;;;;;;;;6.00;5.00;;;;;;;;5085993;28;8802;-74
2023/05/30 15:55:59;;;;;;;;;5.67;5.67;;;;;;;;5090272;28;8807;-74
2023/05/30 15:58:24;;;;;;;;;6.00;6.00;;;;;;;;5096054;28;8823;-73
2023/05/30 16:00:50;;;;;;;;;6.33;5.67;;;;;;;;5083877;28;8902;-75
2023/05/30 16:03:15;;;;;;;;;7.33;5.67;;;;;;;;5082619;28;8814;-73
2023/05/30 16:05:41;;;;;;;;;6.00;6.00;;;;;;;;5084287;28;8981;-73
2023/05/30 16:08:07;;;;;;;;;6.75;5.25;;;;;;;;5084092;28;9557;-73
2023/05/30 16:10:32;;;;;;;;;7.33;6.67;;;;;;;;5084023;28;8826;-72
2023/05/30 16:12:57;;;;;;;;;7.00;6.00;;;;;;;;5084151;28;8875;-74
2023/05/30 16:15:22;;;;;;;;;7.00;7.00;;;;;;;;5084101;28;8810;-74
2023/05/30 16:17:48;;;;;;;;;6.33;6.33;;;;;;;;5083823;28;8840;-75
2023/05/30 16:20:13;;;;;;;;;6.00;5.00;;;;;;;;5076578;28;8826;-73
2023/05/30 16:22:38;;;;;;;;;7.00;6.00;;;;;;;;5070506;28;8798;-75
2023/05/30 16:25:07;;;;;;;;;7.00;5.67;;;;;;;;5070612;28;8803;-75
2023/05/30 16:27:32;;;;;;;;;6.25;5.50;;;;;;;;5070426;28;8959;-74
2023/05/30 16:29:57;;;;;;;;;7.00;6.33;;;;;;;;5070433;28;8818;-75
2023/05/30 16:32:23;;;;;;;;;6.33;6.33;;;;;;;;5070289;28;8872;-74
2023/05/30 16:34:48;;;;;;;;;8.67;7.00;;;;;;;;5070172;28;8832;-74
2023/05/30 16:37:13;;;;;;;;;7.00;7.00;;;;;;;;5070227;28;8929;-75
2023/05/30 16:39:39;;;;;;;;;8.00;6.33;;;;;;;;5070174;28;8799;-74
2023/05/30 16:42:05;;;;;;;;;5.67;5.67;;;;;;;;5070050;28;8899;-75
2023/05/30 16:44:30;;;;;;;;;6.75;5.75;;;;;;;;5070002;28;8810;-75
2023/05/30 16:46:55;;;;;;;;;10.00;7.00;;;;;;;;5070033;28;8878;-74
2023/05/30 16:49:21;;;;;;;;;6.00;6.00;;;;;;;;5067486;28;8848;-75
2023/05/30 16:51:46;;;;;;;;;6.00;5.33;;;;;;;;5070208;28;8818;-74
2023/05/30 16:54:13;;;;;;;;;5.00;5.00;;;;;;;;5069826;28;8886;-75
2023/05/30 16:56:39;;;;;;;;;8.00;8.00;;;;;;;;5069337;28;8830;-74
2023/05/30 16:59:04;;;;;;;;;6.33;5.67;;;;;;;;5069720;28;8818;-74
2023/05/30 17:01:30;;;;;;;;;6.33;6.33;;;;;;;;5069818;28;9537;-74
2023/05/30 17:03:55;;;;;;;;;9.67;6.67;;;;;;;;5070440;28;8799;-73
2023/05/30 17:06:20;;;;;;;;;8.67;7.00;;;;;;;;5073346;28;9047;-74
2023/05/30 17:08:46;;;;;;;;;8.00;7.00;;;;;;;;5070847;28;8915;-72
2023/05/30 17:11:11;;;;;;;;;8.67;6.33;;;;;;;;5069646;28;9790;-73
2023/05/30 17:13:37;;;;;;;;;9.00;7.00;;;;;;;;5084907;28;8939;-72
2023/05/30 17:16:02;;;;;;;;;8.00;7.00;;;;;;;;5074608;28;8808;-71
2023/05/30 17:18:27;;;;;;;;;7.00;5.67;;;;;;;;5072055;28;8907;-73
2023/05/30 17:20:54;;;;;;;;;5.33;5.33;;;;;;;;5069813;28;8803;-74
2023/05/30 17:23:20;;;;;;;;;7.50;5.50;;;;;;;;5066159;28;8803;-74
2023/05/30 17:25:45;;;;;;;;;6.00;6.00;;;;;;;;5072341;28;8786;-73
2023/05/30 17:28:11;;;;;;;;;7.00;7.00;;;;;;;;5069810;28;8854;-77
2023/05/30 17:30:36;;;;;;;;;7.33;6.67;;;;;;;;5070353;28;8844;-80
2023/05/30 17:33:05;;;;;;;;;5.00;5.00;;;;;;;;5069787;28;8883;-82
2023/05/30 17:35:30;;;;;;;;;7.25;7.25;;;;;;;;5069589;28;8839;-85
2023/05/30 17:37:56;;;;;;;;;7.33;6.33;;;;;;;;5070624;28;8794;-78
2023/05/30 17:40:21;;;;;;;;;8.00;7.00;;;;;;;;5070119;28;8827;-82
2023/05/30 17:42:47;;;;;;;;;9.00;7.00;;;;;;;;5069759;28;8807;-82
2023/05/30 17:45:13;;;;;;;;;6.33;6.00;;;;;;;;5067031;28;8818;-83
2023/05/30 17:47:38;;;;;;;;;7.00;7.00;;;;;;;;5069329;28;10131;-79
2023/05/30 17:50:04;;;;;;;;;8.33;7.00;;;;;;;;5060398;28;8831;-80
2023/05/30 17:52:29;;;;;;;;;9.00;6.00;;;;;;;;5070627;28;8810;-81
2023/05/30 17:54:55;;;;;;;;;7.67;6.33;;;;;;;;5069789;28;12264;-81
2023/05/30 17:57:20;;;;;;;;;10.33;8.00;;;;;;;;5070324;28;8786;-83
2023/05/30 17:59:45;;;;;;;;;6.00;6.00;;;;;;;;5068469;28;8803;-85
2023/05/30 18:02:11;;;;;;;;;7.00;7.00;;;;;;;;5068695;28;8805;-82
2023/05/30 18:04:36;;;;;;;;;22.00;17.00;;;;;;;;5066817;28;9462;-76
2023/05/30 18:07:01;;;;;;;;;6.67;5.00;;;;;;;;5070121;28;8820;-79
2023/05/30 18:09:27;;;;;;;;;8.00;7.00;;;;;;;;5069433;28;8839;-80
2023/05/30 18:11:52;;;;;;;;;9.00;8.00;;;;;;;;5068721;28;8803;-79
2023/05/30 18:14:18;;;;;;;;;6.00;6.00;;;;;;;;5067199;28;8923;-77
2023/05/30 18:16:44;;;;;;;;;7.33;6.00;;;;;;;;5068742;28;8830;-78
2023/05/30 18:19:09;;;;;;;;;6.33;5.67;;;;;;;;5066435;28;11509;-78
2023/05/30 18:21:35;;;;;;;;;5.00;5.00;;;;;;;;5067897;28;8850;-77
2023/05/30 18:24:00;;;;;;;;;21.00;18.67;;;;;;;;5069561;28;8801;-80
2023/05/30 18:26:26;;;;;;;;;10.00;8.00;;;;;;;;5069620;28;8798;-77
2023/05/30 18:28:51;;;;;;;;;14.33;11.33;;;;;;;;5069577;28;8826;-77
2023/05/30 18:31:16;;;;;;;;;24.00;21.75;;;;;;;;5069191;28;8803;-83
2023/05/30 18:33:42;;;;;;;;;16.25;12.25;;;;;;;;5069357;28;8799;-82
2023/05/30 18:36:08;;;;;;;;;12.00;10.00;;;;;;;;5068434;28;8876;-83
2023/05/30 18:38:33;;;;;;;;;14.33;12.00;;;;;;;;5069935;28;8987;-79
2023/05/30 18:40:58;;;;;;;;;21.75;21.75;;;;;;;;5067673;28;8940;-82
2023/05/30 18:43:23;;;;;;;;;12.67;10.67;;;;;;;;5067871;28;8830;-84
2023/05/30 18:45:48;;;;;;;;;9.67;8.33;;;;;;;;5068264;28;8794;-84
2023/05/30 18:48:14;;;;;;;;;13.00;9.67;;;;;;;;5069770;28;8962;-78
2023/05/30 18:50:42;;;;;;;;;13.67;13.67;;;;;;;;5068811;28;8868;-84
2023/05/30 18:53:07;;;;;;;;;9.33;8.00;;;;;;;;5068299;28;8933;-69
2023/05/30 18:55:32;;;;;;;;;13.00;11.00;;;;;;;;5067740;28;9246;-69
2023/05/30 18:57:57;;;;;;;;;11.67;11.00;;;;;;;;5067614;28;8911;-68
2023/05/30 19:00:23;;;;;;;;;7.67;7.67;;;;;;;;5067749;28;8930;-71
2023/05/30 19:02:49;;;;;;;;;7.00;6.67;;;;;;;;5068023;28;8921;-75
2023/05/30 19:05:15;;;;;;;;;7.67;6.00;;;;;;;;5067447;28;8826;-74
2023/05/30 19:07:40;;;;;;;;;8.67;7.00;;;;;;;;5068761;28;8925;-73
2023/05/30 19:10:06;;;;;;;;;35.00;31.50;;;;;;;;5075536;22;8904;-74
2023/05/30 19:12:31;;;;;;;;;34.50;32.00;;;;;;;;5049398;28;8809;-72
2023/05/30 19:15:00;;;;;;;;;15.00;15.00;;;;;;;;5048131;28;11563;-75
2023/05/30 19:17:25;;;;;;;;;10.00;8.33;;;;;;;;5045920;28;8817;-78
2023/05/30 19:19:51;;;;;;;;;7.33;7.00;;;;;;;;5033803;28;9053;-71
2023/05/30 19:22:17;;;;;;;;;9.33;8.33;;;;;;;;5048769;28;8804;-73
2023/05/30 19:24:43;;;;;;;;;6.33;6.33;;;;;;;;5048758;28;8820;-71
2023/05/30 19:27:08;;;;;;;;;6.67;6.67;;;;;;;;5048843;28;8963;-73
2023/05/30 19:29:33;;;;;;;;;6.33;6.33;;;;;;;;5046975;28;8813;-73
2023/05/30 19:31:58;;;;;;;;;7.33;6.33;;;;;;;;5039930;28;8831;-72
2023/05/30 19:34:24;;;;;;;;;7.00;6.00;;;;;;;;5036186;28;8813;-71
2023/05/30 19:36:49;;;;;;;;;6.00;6.00;;;;;;;;5038186;28;8801;-70
2023/05/30 19:39:15;;;;;;;;;5.00;5.00;;;;;;;;5035870;28;8859;-70
2023/05/30 19:41:40;;;;;;;;;6.33;6.33;;;;;;;;5033914;28;8826;-70
2023/05/30 19:44:09;;;;;;;;;6.67;6.00;;;;;;;;5040056;28;8896;-71
2023/05/30 19:46:34;;;;;;;;;7.67;5.00;;;;;;;;5040653;28;8927;-71
2023/05/30 19:48:59;;;;;;;;;7.67;7.67;;;;;;;;5037070;28;9435;-71
2023/05/30 19:51:25;;;;;;;;;6.00;6.00;;;;;;;;5038362;28;8801;-70
2023/05/30 19:53:50;;;;;;;;;6.00;6.00;;;;;;;;5035099;28;8918;-70
2023/05/30 19:56:15;;;;;;;;;8.67;6.67;;;;;;;;5040066;28;8839;-70
2023/05/30 19:58:43;;;;;;;;;11.00;8.67;;;;;;;;5043276;28;8889;-71
2023/05/30 20:01:09;;;;;;;;;9.00;6.00;;;;;;;;5039577;28;8897;-70
2023/05/30 20:03:34;;;;;;;;;11.00;10.00;;;;;;;;5039871;28;9137;-70
2023/05/30 20:05:59;;;;;;;;;9.00;6.25;;;;;;;;5031211;28;9542;-72
2023/05/30 20:08:24;;;;;;;;;5.00;5.00;;;;;;;;5030855;28;8827;-71
2023/05/30 20:10:50;;;;;;;;;8.00;7.00;;;;;;;;5037680;28;8811;-72
2023/05/30 20:13:18;;;;;;;;;6.00;6.00;;;;;;;;5032667;28;8796;-83
2023/05/30 20:15:44;;;;;;;;;9.50;9.50;;;;;;;;5031917;28;8823;-71
2023/05/30 20:18:11;;;;;;;;;8.00;6.50;;;;;;;;5030305;28;9424;-70
2023/05/30 20:20:37;;;;;;;;;4.00;3.25;;;;;;;;5041042;28;8809;-70
2023/05/30 20:23:02;;;;;;;;;9.25;7.00;;;;;;;;5051548;28;9510;-70
2023/05/30 20:25:27;;;;;;;;;9.00;7.00;;;;;;;;5050322;28;8825;-69
2023/05/30 20:27:55;;;;;;;;;10.00;7.50;;;;;;;;5049729;28;8975;-70
2023/05/30 20:30:20;;;;;;;;;11.00;9.00;;;;;;;;5042048;28;8849;-71
2023/05/30 20:32:59;;;;;;;;;8.75;8.75;;;;;;;;5031944;28;9445;-71
2023/05/30 20:35:25;;;;;;;;;11.00;11.00;;;;;;;;5040359;28;8811;-72
2023/05/30 20:37:50;;;;;;;;;10.00;9.00;;;;;;;;5038879;28;9595;-72
2023/05/30 20:40:15;;;;;;;;;12.25;9.00;;;;;;;;5038116;28;8921;-71
2023/05/30 20:42:41;;;;;;;;;9.75;7.00;;;;;;;;5038270;28;8812;-71
2023/05/30 20:45:06;;;;;;;;;6.75;6.75;;;;;;;;5039688;28;8824;-70
2023/05/30 20:47:32;;;;;;;;;8.00;8.00;;;;;;;;5046432;28;8890;-70
2023/05/30 20:50:01;;;;;;;;;10.00;9.00;;;;;;;;5045602;28;9604;-71
2023/05/30 20:52:26;;;;;;;;;6.67;6.67;;;;;;;;5051363;28;8947;-72
2023/05/30 20:54:52;;;;;;;;;9.33;7.67;;;;;;;;5051173;28;9488;-70
2023/05/30 20:57:19;;;;;;;;;9.00;9.00;;;;;;;;5051306;28;8806;-69
2023/05/30 20:59:45;;;;;;;;;11.00;10.00;;;;;;;;5047179;28;8855;-70
2023/05/30 21:02:10;;;;;;;;;9.00;7.00;;;;;;;;5050978;28;9357;-71
2023/05/30 21:04:36;;;;;;;;;7.67;6.67;;;;;;;;5050955;28;8785;-71
2023/05/30 21:07:01;;;;;;;;;9.67;7.33;;;;;;;;5050894;28;8813;-70
2023/05/30 21:09:26;;;;;;;;;6.33;6.00;;;;;;;;5050914;28;8845;-71
2023/05/30 21:11:52;;;;;;;;;7.33;7.33;;;;;;;;5049781;28;8856;-71
2023/05/30 21:14:17;;;;;;;;;9.00;8.25;;;;;;;;5050605;28;8859;-71
2023/05/30 21:16:44;;;;;;;;;10.75;10.00;;;;;;;;5050952;28;8797;-70
2023/05/30 21:19:09;;;;;;;;;8.00;7.50;;;;;;;;5050658;28;8867;-71
2023/05/30 21:21:35;;;;;;;;;11.00;8.00;;;;;;;;5050685;28;9363;-71
2023/05/30 21:24:03;;;;;;;;;12.25;9.25;;;;;;;;5050439;28;8777;-71
2023/05/30 21:26:29;;;;;;;;;6.50;6.50;;;;;;;;5050749;28;8800;-71
2023/05/30 21:28:54;;;;;;;;;9.25;6.25;;;;;;;;5050624;28;9449;-71
2023/05/30 21:31:20;;;;;;;;;7.00;7.00;;;;;;;;5050416;28;8793;-72
2023/05/30 21:33:45;;;;;;;;;7.00;5.50;;;;;;;;5044287;28;8950;-72
2023/05/30 21:36:10;;;;;;;;;7.00;7.00;;;;;;;;5041479;28;8840;-72
2023/05/30 21:38:35;;;;;;;;;7.33;5.67;;;;;;;;5030273;28;8823;-72
2023/05/30 21:41:01;;;;;;;;;11.00;9.50;;;;;;;;5033007;28;8842;-70
2023/05/30 21:43:26;;;;;;;;;6.00;6.00;;;;;;;;5030562;28;8784;-70
2023/05/30 21:45:51;;;;;;;;;7.00;7.00;;;;;;;;5030965;28;8847;-73
2023/05/30 21:48:16;;;;;;;;;7.00;7.00;;;;;;;;5029469;28;8863;-73
2023/05/30 21:50:42;;;;;;;;;6.00;6.00;;;;;;;;5055207;28;8838;-73
2023/05/30 21:53:07;;;;;;;;;8.00;8.00;;;;;;;;5070768;28;8795;-72
2023/05/30 21:55:32;;;;;;;;;7.00;6.00;;;;;;;;5070501;28;8821;-71
2023/05/30 21:57:58;;;;;;;;;7.33;5.00;;;;;;;;5070346;28;8802;-70
2023/05/30 22:00:23;;;;;;;;;5.00;5.00;;;;;;;;5070399;28;9704;-71
2023/05/30 22:02:48;;;;;;;;;7.00;7.00;;;;;;;;5070391;28;8925;-71
2023/05/30 22:05:13;;;;;;;;;7.75;6.25;;;;;;;;5070143;28;8837;-71
2023/05/30 22:07:39;;;;;;;;;6.75;6.75;;;;;;;;5070356;28;8798;-71
2023/05/30 22:10:05;;;;;;;;;9.50;9.00;;;;;;;;5076010;22;9254;-77
2023/05/30 22:12:31;;;;;;;;;6.25;4.75;;;;;;;;5030721;28;8829;-75
2023/05/30 22:14:56;;;;;;;;;9.00;9.00;;;;;;;;5028709;28;9596;-75
2023/05/30 22:17:21;;;;;;;;;6.25;6.25;;;;;;;;5029056;28;8910;-75
2023/05/30 22:19:46;;;;;;;;;5.75;5.75;;;;;;;;5031070;28;8904;-76
2023/05/30 22:22:12;;;;;;;;;7.00;4.33;;;;;;;;5029386;28;8791;-75
2023/05/30 22:24:37;;;;;;;;;7.00;6.25;;;;;;;;5029383;28;8885;-75
2023/05/30 22:27:03;;;;;;;;;6.50;6.50;;;;;;;;5029764;28;8887;-75
2023/05/30 22:29:28;;;;;;;;;8.00;7.25;;;;;;;;5029357;28;8819;-75
2023/05/30 22:31:53;;;;;;;;;7.50;6.00;;;;;;;;5029386;28;8796;-74
2023/05/30 22:34:19;;;;;;;;;9.00;6.50;;;;;;;;5028836;28;8799;-74
2023/05/30 22:36:44;;;;;;;;;10.25;7.00;;;;;;;;5029802;28;8792;-74
2023/05/30 22:39:10;;;;;;;;;9.50;5.50;;;;;;;;5030505;28;9817;-74
2023/05/30 22:41:35;;;;;;;;;5.75;5.75;;;;;;;;5030420;28;8888;-74
2023/05/30 22:44:00;;;;;;;;;6.50;5.75;;;;;;;;5029017;28;8869;-74
2023/05/30 22:46:26;;;;;;;;;9.75;6.50;;;;;;;;5030316;28;9037;-74
2023/05/30 22:48:51;;;;;;;;;7.75;7.00;;;;;;;;5030244;28;8869;-74
2023/05/30 22:51:17;;;;;;;;;9.00;8.00;;;;;;;;5046600;28;8789;-74
2023/05/30 22:53:43;;;;;;;;;10.75;9.00;;;;;;;;5049911;28;8948;-74
2023/05/30 22:56:08;;;;;;;;;9.50;8.00;;;;;;;;5050088;28;9539;-74
2023/05/30 22:58:33;;;;;;;;;9.25;8.75;;;;;;;;5048651;28;9770;-74
2023/05/30 23:00:59;;;;;;;;;9.75;8.00;;;;;;;;5049978;28;8904;-74
2023/05/30 23:03:24;;;;;;;;;7.75;7.75;;;;;;;;5049900;28;8788;-74
2023/05/30 23:05:49;;;;;;;;;9.75;7.50;;;;;;;;5049797;28;8924;-74
2023/05/30 23:08:14;;;;;;;;;5.50;3.75;;;;;;;;5049870;28;8821;-75
2023/05/30 23:10:40;;;;;;;;;8.25;6.25;;;;;;;;5049923;28;8841;-75
2023/05/30 23:13:05;;;;;;;;;3.25;3.25;;;;;;;;5048105;28;8944;-74
2023/05/30 23:15:30;;;;;;;;;7.00;5.00;;;;;;;;5048557;28;8825;-74
2023/05/30 23:17:56;;;;;;;;;5.50;5.00;;;;;;;;5049782;28;8882;-74
2023/05/30 23:20:21;;;;;;;;;8.25;5.75;;;;;;;;5049686;28;9524;-74
2023/05/30 23:22:46;;;;;;;;;7.25;5.25;;;;;;;;5049616;28;8785;-74
2023/05/30 23:25:12;;;;;;;;;5.00;5.00;;;;;;;;5049751;28;8820;-74
2023/05/30 23:27:37;;;;;;;;;5.00;5.00;;;;;;;;5049932;28;8786;-74
2023/05/30 23:30:03;;;;;;;;;8.25;5.00;;;;;;;;5050329;28;8840;-75
2023/05/30 23:32:28;;;;;;;;;4.00;4.00;;;;;;;;5053685;28;8781;-75
2023/05/30 23:34:53;;;;;;;;;5.50;5.00;;;;;;;;5053558;28;9554;-74
2023/05/30 23:37:18;;;;;;;;;4.75;4.00;;;;;;;;5053661;28;9520;-73
2023/05/30 23:39:44;;;;;;;;;6.25;4.50;;;;;;;;5053611;28;8908;-73
2023/05/30 23:42:09;;;;;;;;;3.50;3.50;;;;;;;;5053807;28;8887;-73
2023/05/30 23:44:34;;;;;;;;;5.00;5.00;;;;;;;;5053472;28;8908;-73
2023/05/30 23:47:00;;;;;;;;;6.00;5.75;;;;;;;;5053492;28;8816;-74
2023/05/30 23:49:25;;;;;;;;;9.50;5.25;;;;;;;;5052862;28;8825;-75
2023/05/30 23:51:50;;;;;;;;;4.00;4.00;;;;;;;;5051877;28;8937;-75
2023/05/30 23:54:16;;;;;;;;;5.75;5.25;;;;;;;;5053350;28;8769;-75
2023/05/30 23:56:41;;;;;;;;;6.00;6.00;;;;;;;;5053345;28;8816;-74
2023/05/30 23:59:06;;;;;;;;;5.50;5.00;;;;;;;;5053563;28;8805;-74
